This is the latest recevied weather packets stored in our database for station/object IQ1GE. If no packets are shown the sender has not sent any weather packets the latest 10 day(s).
| Time | Temp. | Humidity | Pressure | Rain* | Wind** | Luminosity | Snow |
|---|---|---|---|---|---|---|---|
| 1778164171 | 20.56° C | 69% | 1015.6 hPa | 0 mm | - | - | - |
| 1778163877 | 20° C | 71% | 1015.6 hPa | 0 mm | - | - | - |
| 1778162374 | 20° C | 71% | 1015.7 hPa | 0 mm | - | - | - |
| 1778161171 | 20° C | 71% | 1015.8 hPa | 0 mm | - | - | - |
| 1778159674 | 20° C | 72% | 1015.7 hPa | 0 mm | - | - | - |
| 1778159071 | 20° C | 72% | 1015.7 hPa | 0 mm | - | - | - |
| 1778158774 | 20° C | 72% | 1015.6 hPa | 0 mm | - | - | - |
| 1778157571 | 20° C | 71% | 1015.5 hPa | 0 mm | - | - | - |
| 1778157271 | 20° C | 71% | 1015.6 hPa | 0 mm | - | - | - |
| 1778156371 | 20° C | 72% | 1015.5 hPa | 0 mm | - | - | - |
| 1778155777 | 19.44° C | 74% | 1015.5 hPa | 0 mm | - | - | - |
| 1778155171 | 19.44° C | 74% | 1015.5 hPa | 0 mm | - | - | - |
| 1778153371 | 20° C | 70% | 1015.8 hPa | 0 mm | - | - | - |
| 1778152480 | 20° C | 71% | 1015.9 hPa | 0 mm | - | - | - |
| 1778151274 | 19.44° C | 73% | 1015.7 hPa | 0 mm | - | - | - |
| 1778150674 | 19.44° C | 73% | 1015.7 hPa | 0 mm | - | - | - |
| 1778150077 | 19.44° C | 73% | 1015.8 hPa | 0 mm | - | - | - |
| 1778149777 | 18.89° C | 74% | 1015.8 hPa | 0 mm | - | - | - |
| 1778149471 | 18.89° C | 75% | 1015.7 hPa | 0 mm | - | - | - |
| 1778148871 | 18.89° C | 77% | 1015.8 hPa | 0 mm | - | - | - |
| 1778147371 | 20° C | 72% | 1015.8 hPa | 0 mm | - | - | - |
| 1778146771 | 20° C | 75% | 1015.7 hPa | 0 mm | - | - | - |
| 1778145571 | 19.44° C | 73% | 1015.6 hPa | 0 mm | - | - | - |
| 1777649378 | 21.67° C | 36% | 1025.2 hPa | 0 mm | - | - | - |
| 1777649078 | 21.67° C | 36% | 1025.4 hPa | 0 mm | - | - | - |
* Rain latest hour (hover to see other rain measurements)
** Current wind speed in m/s (hover to see current wind gust speed)